createdAt,value
2018-06-10T00:00:17.112Z,14.73
2018-06-10T00:02:45.300Z,18.97
2018-06-10T00:05:13.499Z,15.40
2018-06-10T00:07:41.745Z,19.33
2018-06-10T00:10:09.904Z,15.87
2018-06-10T00:12:38.161Z,22.13
2018-06-10T00:15:07.015Z,19.40
2018-06-10T00:17:35.349Z,23.90
2018-06-10T00:20:03.588Z,23.43
2018-06-10T00:22:31.876Z,22.23
2018-06-10T00:25:00.047Z,15.30
2018-06-10T00:27:28.332Z,15.80
2018-06-10T00:29:56.611Z,25.07
2018-06-10T00:32:24.870Z,21.83
2018-06-10T00:34:53.183Z,20.20
2018-06-10T00:37:21.428Z,19.70
2018-06-10T00:39:49.643Z,26.30
2018-06-10T00:42:17.805Z,17.00
2018-06-10T00:44:46.007Z,28.33
2018-06-10T00:47:14.294Z,20.57
2018-06-10T00:49:42.544Z,21.47
2018-06-10T00:52:10.757Z,16.43
2018-06-10T00:54:38.923Z,15.90
2018-06-10T00:57:07.197Z,14.47
2018-06-10T00:59:35.484Z,16.80
2018-06-10T01:02:03.788Z,15.87
2018-06-10T01:04:31.982Z,15.80
2018-06-10T01:07:00.576Z,16.93
2018-06-10T01:09:28.908Z,16.90
2018-06-10T01:11:57.131Z,17.97
2018-06-10T01:14:25.343Z,29.57
2018-06-10T01:16:53.549Z,18.50
2018-06-10T01:19:21.795Z,18.70
2018-06-10T01:21:50.025Z,20.53
2018-06-10T01:24:18.195Z,21.30
2018-06-10T01:26:50.263Z,23.80
2018-06-10T01:29:19.053Z,40.77
2018-06-10T01:31:47.218Z,21.57
2018-06-10T01:34:15.435Z,44.37
2018-06-10T01:36:43.651Z,33.20
2018-06-10T01:39:11.870Z,17.70
2018-06-10T01:41:40.051Z,44.00
2018-06-10T01:44:08.259Z,31.03
2018-06-10T01:46:36.461Z,24.53
2018-06-10T01:49:04.763Z,24.07
2018-06-10T01:51:32.949Z,21.87
2018-06-10T01:54:01.135Z,20.77
2018-06-10T01:56:29.365Z,30.17
2018-06-10T01:58:57.627Z,19.87
2018-06-10T02:01:25.786Z,23.77
2018-06-10T02:03:53.056Z,23.00
2018-06-10T02:06:21.320Z,22.77
2018-06-10T02:08:49.535Z,23.03
2018-06-10T02:11:17.684Z,21.50
2018-06-10T02:13:46.052Z,23.30
2018-06-10T02:16:14.260Z,21.63
2018-06-10T02:18:42.800Z,20.80
2018-06-10T02:21:11.068Z,22.20
2018-06-10T02:23:39.293Z,20.93
2018-06-10T02:26:07.541Z,20.50
2018-06-10T02:28:35.753Z,21.97
2018-06-10T02:31:03.960Z,19.87
2018-06-10T02:33:32.308Z,19.93
2018-06-10T02:36:00.512Z,19.77
2018-06-10T02:38:28.708Z,20.80
2018-06-10T02:40:56.899Z,19.87
2018-06-10T02:43:25.188Z,20.20
2018-06-10T02:45:53.388Z,19.07
2018-06-10T02:48:21.599Z,19.30
2018-06-10T02:50:49.780Z,20.30
2018-06-10T02:53:17.968Z,18.97
2018-06-10T02:55:46.145Z,19.93
2018-06-10T02:58:14.346Z,19.50
2018-06-10T03:00:42.562Z,18.90
2018-06-10T03:03:10.815Z,20.67
2018-06-10T03:05:39.022Z,20.10
2018-06-10T03:08:07.225Z,20.57
2018-06-10T03:10:35.501Z,19.63
2018-06-10T03:13:03.708Z,20.13
2018-06-10T03:15:31.939Z,20.43
2018-06-10T03:18:00.156Z,22.47
2018-06-10T03:20:28.409Z,18.53
2018-06-10T03:22:56.572Z,19.50
2018-06-10T03:25:24.756Z,18.17
2018-06-10T03:27:52.993Z,19.60
2018-06-10T03:30:21.205Z,20.17
2018-06-10T03:32:49.399Z,20.93
2018-06-10T03:35:17.646Z,19.17
2018-06-10T03:37:46.004Z,20.03
2018-06-10T03:40:14.270Z,21.40
2018-06-10T03:42:42.479Z,19.77
2018-06-10T03:45:10.714Z,19.37
2018-06-10T03:47:38.933Z,19.40
2018-06-10T03:50:07.226Z,20.23
2018-06-10T03:52:35.497Z,20.90
2018-06-10T03:55:03.722Z,20.70
2018-06-10T03:57:31.925Z,20.17
2018-06-10T04:00:00.122Z,20.30
2018-06-10T04:02:28.624Z,20.17
2018-06-10T04:04:56.867Z,20.77
2018-06-10T04:07:25.069Z,20.10
2018-06-10T04:09:53.243Z,20.50
2018-06-10T04:12:21.437Z,19.23
2018-06-10T04:14:49.701Z,20.60
2018-06-10T04:17:17.914Z,20.80
2018-06-10T04:19:46.113Z,20.10
2018-06-10T04:22:14.272Z,19.47
2018-06-10T04:24:42.486Z,19.13
2018-06-10T04:27:10.675Z,18.40
2018-06-10T04:29:38.967Z,17.53
2018-06-10T04:32:07.479Z,18.33
2018-06-10T04:34:35.677Z,17.33
2018-06-10T04:37:03.858Z,18.30
2018-06-10T04:39:32.417Z,19.90
2018-06-10T04:42:00.667Z,19.70
2018-06-10T04:44:28.957Z,20.40
2018-06-10T04:46:57.140Z,17.90
2018-06-10T04:49:25.355Z,17.57
2018-06-10T04:51:53.588Z,17.30
2018-06-10T04:54:22.089Z,18.30
2018-06-10T04:56:50.334Z,17.80
2018-06-10T04:59:21.457Z,16.73
2018-06-10T05:01:50.419Z,17.53
2018-06-10T05:04:18.626Z,16.03
2018-06-10T05:06:47.183Z,16.57
2018-06-10T05:09:15.415Z,15.33
2018-06-10T05:11:43.952Z,15.23
2018-06-10T05:14:12.199Z,15.67
2018-06-10T05:16:40.405Z,15.87
2018-06-10T05:19:08.584Z,14.70
2018-06-10T05:21:37.116Z,16.53
2018-06-10T05:24:05.289Z,15.50
2018-06-10T05:26:33.522Z,14.57
2018-06-10T05:29:01.749Z,14.60
2018-06-10T05:31:30.011Z,15.67
2018-06-10T05:33:58.244Z,15.30
2018-06-10T05:36:26.440Z,15.60
2018-06-10T05:38:54.628Z,16.77
2018-06-10T05:41:22.814Z,15.10
2018-06-10T05:43:50.983Z,16.13
2018-06-10T05:46:19.182Z,15.20
2018-06-10T05:48:47.386Z,14.60
2018-06-10T05:51:15.672Z,13.90
2018-06-10T05:53:43.867Z,15.20
2018-06-10T05:56:12.125Z,16.53
2018-06-10T05:58:40.401Z,14.83
2018-06-10T06:01:08.888Z,16.20
2018-06-10T06:03:37.400Z,18.90
2018-06-10T06:06:05.619Z,16.23
2018-06-10T06:08:33.852Z,15.50
2018-06-10T06:11:02.145Z,15.30
2018-06-10T06:13:30.432Z,15.70
2018-06-10T06:15:58.685Z,14.93
2018-06-10T06:18:26.922Z,15.87
2018-06-10T06:20:55.114Z,16.77
2018-06-10T06:23:23.337Z,15.23
2018-06-10T06:25:51.545Z,14.27
2018-06-10T06:28:19.859Z,15.30
2018-06-10T06:30:48.135Z,16.10
2018-06-10T06:33:16.757Z,13.37
2018-06-10T06:35:45.200Z,14.40
2018-06-10T06:38:13.430Z,13.50
2018-06-10T06:40:41.629Z,13.43
2018-06-10T06:43:09.835Z,10.83
2018-06-10T06:45:38.071Z,9.97
2018-06-10T06:48:06.299Z,14.70
2018-06-10T06:50:34.538Z,11.20
2018-06-10T06:53:02.741Z,11.70
2018-06-10T06:55:30.928Z,12.03
2018-06-10T06:57:59.138Z,11.90
2018-06-10T07:00:27.431Z,11.60
2018-06-10T07:02:56.056Z,11.93
2018-06-10T07:05:24.273Z,13.30
2018-06-10T07:07:52.513Z,13.33
2018-06-10T07:10:20.737Z,13.00
2018-06-10T07:12:49.296Z,13.03
2018-06-10T07:15:17.562Z,13.03
2018-06-10T07:17:45.775Z,12.67
2018-06-10T07:20:14.023Z,14.63
2018-06-10T07:22:42.261Z,15.37
2018-06-10T07:25:10.434Z,15.60
2018-06-10T07:27:38.956Z,14.13
2018-06-10T07:30:07.258Z,11.33
2018-06-10T07:32:35.830Z,12.60
2018-06-10T07:35:04.449Z,13.40
2018-06-10T07:37:32.976Z,11.97
2018-06-10T07:40:01.193Z,13.50
2018-06-10T07:42:29.425Z,13.17
2018-06-10T07:44:57.896Z,12.90
2018-06-10T07:47:26.097Z,13.60
2018-06-10T07:49:54.327Z,13.50
2018-06-10T07:52:22.610Z,13.77
2018-06-10T07:54:50.811Z,12.43
2018-06-10T07:57:18.970Z,12.07
2018-06-10T07:59:47.159Z,11.70
2018-06-10T08:02:15.353Z,10.43
2018-06-10T08:04:43.615Z,9.30
2018-06-10T08:07:12.549Z,9.17
2018-06-10T08:09:40.728Z,8.67
2018-06-10T08:12:08.909Z,8.07
2018-06-10T08:14:37.106Z,8.77
2018-06-10T08:17:05.296Z,9.73
2018-06-10T08:19:33.533Z,8.70
2018-06-10T08:22:01.744Z,8.23
2018-06-10T08:24:29.958Z,8.40
2018-06-10T08:26:58.180Z,9.90
2018-06-10T08:29:26.378Z,10.20
2018-06-10T08:31:54.654Z,9.17
2018-06-10T08:34:22.911Z,10.20
2018-06-10T08:36:51.155Z,10.53
2018-06-10T08:39:19.354Z,9.93
2018-06-10T08:41:47.606Z,11.97
2018-06-10T08:44:15.851Z,9.90
2018-06-10T08:46:44.388Z,11.43
2018-06-10T08:49:12.584Z,10.20
2018-06-10T08:51:41.210Z,10.17
2018-06-10T08:54:09.449Z,10.10
2018-06-10T08:56:37.691Z,9.50
2018-06-10T08:59:05.907Z,8.90
2018-06-10T09:01:34.162Z,9.13
2018-06-10T09:04:02.413Z,7.67
2018-06-10T09:06:30.617Z,8.27
2018-06-10T09:08:58.885Z,17.50
2018-06-10T09:11:27.128Z,8.90
2018-06-10T09:13:55.332Z,10.27
2018-06-10T09:16:23.631Z,8.90
2018-06-10T09:18:52.168Z,10.10
2018-06-10T09:21:20.331Z,9.10
2018-06-10T09:23:48.607Z,13.60
2018-06-10T09:26:16.859Z,9.90
2018-06-10T09:28:45.184Z,9.00
2018-06-10T09:31:13.488Z,8.93
2018-06-10T09:33:41.718Z,10.33
2018-06-10T09:36:09.960Z,8.80
2018-06-10T09:38:38.173Z,9.03
2018-06-10T09:41:06.374Z,9.40
2018-06-10T09:43:34.615Z,9.10
2018-06-10T09:46:02.778Z,9.50
2018-06-10T09:48:31.036Z,11.03
2018-06-10T09:50:59.520Z,8.90
2018-06-10T09:53:28.024Z,8.50
2018-06-10T09:55:56.264Z,10.00
2018-06-10T09:58:24.458Z,8.80
2018-06-10T10:00:53.065Z,12.40
2018-06-10T10:03:21.283Z,8.80
2018-06-10T10:05:49.529Z,9.03
2018-06-10T10:08:17.736Z,10.20
2018-06-10T10:10:46.217Z,10.03
2018-06-10T10:13:14.456Z,9.03
2018-06-10T10:15:42.716Z,12.30
2018-06-10T10:18:10.917Z,10.30
2018-06-10T10:20:39.158Z,11.00
2018-06-10T10:23:07.378Z,10.13
2018-06-10T10:25:36.004Z,9.37
2018-06-10T10:28:04.296Z,9.77
2018-06-10T10:30:32.465Z,9.97
2018-06-10T10:33:00.660Z,10.57
2018-06-10T10:35:28.885Z,11.20
2018-06-10T10:37:57.142Z,11.60
2018-06-10T10:40:25.372Z,12.27
2018-06-10T10:42:53.622Z,9.43
2018-06-10T10:45:22.106Z,9.07
2018-06-10T10:47:50.397Z,9.17
2018-06-10T10:50:18.657Z,9.00
2018-06-10T10:52:46.900Z,9.47
2018-06-10T10:55:15.162Z,11.13
2018-06-10T10:57:43.357Z,10.27
2018-06-10T11:00:11.571Z,9.57
2018-06-10T11:02:39.832Z,10.07
2018-06-10T11:05:07.999Z,9.60
2018-06-10T11:07:36.373Z,9.43
2018-06-10T11:10:04.577Z,10.00
2018-06-10T11:12:33.032Z,9.70
2018-06-10T11:15:01.334Z,9.20
2018-06-10T11:17:29.565Z,11.17
2018-06-10T11:19:57.767Z,10.27
2018-06-10T11:22:26.717Z,8.13
2018-06-10T11:24:54.960Z,9.80
2018-06-10T11:27:23.275Z,9.30
2018-06-10T11:29:51.432Z,8.60
2018-06-10T11:32:26.341Z,8.70
2018-06-10T11:34:54.531Z,9.20
2018-06-10T11:37:22.715Z,9.83
2018-06-10T11:39:51.081Z,8.03
2018-06-10T11:42:19.297Z,7.07
2018-06-10T11:44:47.449Z,7.07
2018-06-10T11:47:15.624Z,6.67
2018-06-10T11:49:43.780Z,6.70
2018-06-10T11:52:12.036Z,6.83
2018-06-10T11:54:40.249Z,6.67
2018-06-10T11:57:08.456Z,7.50
2018-06-10T11:59:36.666Z,7.70
2018-06-10T12:02:04.839Z,7.90
2018-06-10T12:04:33.057Z,9.03
2018-06-10T12:07:01.338Z,8.27
2018-06-10T12:09:29.575Z,8.47
2018-06-10T12:11:57.780Z,8.70
2018-06-10T12:14:25.954Z,8.90
2018-06-10T12:16:54.147Z,7.60
2018-06-10T12:19:22.339Z,8.57
2018-06-10T12:21:50.563Z,8.10
2018-06-10T12:24:18.775Z,7.20
2018-06-10T12:26:47.036Z,7.80
2018-06-10T12:29:15.236Z,10.93
2018-06-10T12:31:43.477Z,9.43
2018-06-10T12:34:11.939Z,9.93
2018-06-10T12:36:40.169Z,9.33
2018-06-10T12:39:08.878Z,9.33
2018-06-10T12:41:37.389Z,9.90
2018-06-10T12:44:05.718Z,9.37
2018-06-10T12:46:33.903Z,11.77
2018-06-10T12:49:02.195Z,9.20
2018-06-10T12:51:30.401Z,8.90
2018-06-10T12:53:58.625Z,8.47
2018-06-10T12:56:26.905Z,8.10
2018-06-10T12:58:55.100Z,8.03
2018-06-10T13:01:23.292Z,7.10
2018-06-10T13:03:51.521Z,7.37
2018-06-10T13:06:19.814Z,7.63
2018-06-10T13:08:48.341Z,9.40
2018-06-10T13:11:16.574Z,8.43
2018-06-10T13:13:44.829Z,17.80
2018-06-10T13:16:13.044Z,10.43
2018-06-10T13:18:41.465Z,7.93
2018-06-10T13:21:09.847Z,10.27
2018-06-10T13:23:38.153Z,10.57
2018-06-10T13:26:06.364Z,9.17
2018-06-10T13:28:34.607Z,10.40
2018-06-10T13:31:02.802Z,8.20
2018-06-10T13:33:31.300Z,7.80
2018-06-10T13:35:59.892Z,8.27
2018-06-10T13:38:28.179Z,8.10
2018-06-10T13:40:56.414Z,12.00
2018-06-10T13:43:24.652Z,10.37
2018-06-10T13:45:52.921Z,13.03
2018-06-10T13:48:21.202Z,9.10
2018-06-10T13:50:49.454Z,9.73
2018-06-10T13:53:17.753Z,9.63
2018-06-10T13:55:46.192Z,7.40
2018-06-10T13:58:14.731Z,8.60
2018-06-10T14:00:43.014Z,8.53
2018-06-10T14:03:11.189Z,8.77
2018-06-10T14:05:39.401Z,8.43
2018-06-10T14:08:07.627Z,9.30
2018-06-10T14:10:42.447Z,9.20
2018-06-10T14:13:10.669Z,14.40
2018-06-10T14:15:38.918Z,11.17
2018-06-10T14:18:07.372Z,9.00
2018-06-10T14:23:10.128Z,8.73
2018-06-10T14:25:38.319Z,8.60
2018-06-10T14:28:07.423Z,9.83
2018-06-10T14:30:35.668Z,8.53
2018-06-10T14:33:03.871Z,8.47
2018-06-10T14:35:32.018Z,8.90
2018-06-10T14:38:00.325Z,8.10
2018-06-10T14:40:28.476Z,7.47
2018-06-10T14:42:56.696Z,8.40
2018-06-10T14:45:24.928Z,9.00
2018-06-10T14:47:53.178Z,8.13
2018-06-10T14:50:21.411Z,9.87
2018-06-10T14:52:49.615Z,9.73
2018-06-10T14:55:17.839Z,9.93
2018-06-10T14:57:46.444Z,12.43
2018-06-10T15:00:14.757Z,12.13
2018-06-10T15:02:42.970Z,10.63
2018-06-10T15:05:11.175Z,10.03
2018-06-10T15:07:39.407Z,9.77
2018-06-10T15:10:07.674Z,10.63
2018-06-10T15:12:35.914Z,11.23
2018-06-10T15:15:04.176Z,10.90
2018-06-10T15:17:32.403Z,11.20
2018-06-10T15:20:00.629Z,14.30
2018-06-10T15:22:28.828Z,12.67
2018-06-10T15:24:57.045Z,16.83
2018-06-10T15:27:25.211Z,15.30
2018-06-10T15:29:53.451Z,12.23
2018-06-10T15:32:21.748Z,16.93
2018-06-10T15:34:49.996Z,14.90
2018-06-10T15:37:18.201Z,16.33
2018-06-10T15:39:46.464Z,12.50
2018-06-10T15:42:15.036Z,12.77
2018-06-10T15:44:43.996Z,13.23
2018-06-10T15:47:12.261Z,13.80
2018-06-10T15:49:40.465Z,12.47
2018-06-10T15:52:08.652Z,13.30
2018-06-10T15:54:36.859Z,12.37
2018-06-10T15:57:05.302Z,13.20
2018-06-10T15:59:33.498Z,13.43
2018-06-10T16:02:02.140Z,12.20
2018-06-10T16:04:30.401Z,12.60
2018-06-10T16:06:58.632Z,12.60
2018-06-10T16:09:26.921Z,13.37
2018-06-10T16:11:55.140Z,16.10
2018-06-10T16:14:23.396Z,13.70
2018-06-10T16:16:51.643Z,11.97
2018-06-10T16:19:20.204Z,13.80
2018-06-10T16:21:48.470Z,12.33
2018-06-10T16:24:16.681Z,12.63
2018-06-10T16:26:44.940Z,13.53
2018-06-10T16:29:13.144Z,12.20
2018-06-10T16:31:41.360Z,12.00
2018-06-10T16:34:09.597Z,12.70
2018-06-10T16:36:37.855Z,13.23
2018-06-10T16:39:09.458Z,12.60
2018-06-10T16:41:37.700Z,12.13
2018-06-10T16:44:05.932Z,12.33
2018-06-10T16:46:34.386Z,12.60
2018-06-10T16:49:02.666Z,12.47
2018-06-10T16:51:30.915Z,13.33
2018-06-10T16:53:59.140Z,12.67
2018-06-10T16:56:27.390Z,12.77
2018-06-10T16:58:55.576Z,13.10
2018-06-10T17:01:23.762Z,12.57
2018-06-10T17:03:51.987Z,14.27
2018-06-10T17:06:20.184Z,13.90
2018-06-10T17:08:48.381Z,13.23
2018-06-10T17:11:16.676Z,13.10
2018-06-10T17:13:44.887Z,13.47
2018-06-10T17:16:13.234Z,13.00
2018-06-10T17:18:41.442Z,13.43
2018-06-10T17:21:09.657Z,14.43
2018-06-10T17:23:37.912Z,14.67
2018-06-10T17:26:06.500Z,15.10
2018-06-10T17:28:34.759Z,14.87
2018-06-10T17:31:03.032Z,15.43
2018-06-10T17:33:31.322Z,14.10
2018-06-10T17:35:59.566Z,15.83
2018-06-10T17:38:27.773Z,15.50
2018-06-10T17:40:56.070Z,17.93
2018-06-10T17:43:24.637Z,14.87
2018-06-10T17:45:52.953Z,13.00
2018-06-10T17:48:22.000Z,14.37
2018-06-10T17:50:50.635Z,13.40
2018-06-10T17:53:18.838Z,11.43
2018-06-10T17:55:47.228Z,11.63
2018-06-10T17:58:15.446Z,13.00
2018-06-10T18:00:43.708Z,12.13
2018-06-10T18:03:11.965Z,11.23
2018-06-10T18:05:40.221Z,12.47
2018-06-10T18:08:08.419Z,13.30
2018-06-10T18:10:36.778Z,10.87
2018-06-10T18:13:05.011Z,12.27
2018-06-10T18:15:33.259Z,11.90
2018-06-10T18:18:01.473Z,11.50
2018-06-10T18:20:29.669Z,13.03
2018-06-10T18:22:57.912Z,13.50
2018-06-10T18:25:26.085Z,12.30
2018-06-10T18:27:54.345Z,11.37
2018-06-10T18:30:22.539Z,12.27
2018-06-10T18:32:50.749Z,13.43
2018-06-10T18:35:18.946Z,13.60
2018-06-10T18:37:47.201Z,12.17
2018-06-10T18:40:15.407Z,12.10
2018-06-10T18:42:43.701Z,13.33
2018-06-10T18:45:11.933Z,14.07
2018-06-10T18:47:40.373Z,15.30
2018-06-10T18:50:08.651Z,14.80
2018-06-10T18:52:36.884Z,16.20
2018-06-10T18:55:05.118Z,16.47
2018-06-10T18:57:33.316Z,13.70
2018-06-10T19:00:01.505Z,15.73
2018-06-10T19:02:29.736Z,13.83
2018-06-10T19:04:58.013Z,14.57
2018-06-10T19:07:26.561Z,15.37
2018-06-10T19:09:54.703Z,17.80
2018-06-10T19:12:22.912Z,18.57
2018-06-10T19:14:51.154Z,21.43
2018-06-10T19:17:19.406Z,18.17
2018-06-10T19:19:47.609Z,23.00
2018-06-10T19:22:15.776Z,19.20
2018-06-10T19:24:43.968Z,19.13
2018-06-10T19:27:12.129Z,21.90
2018-06-10T19:29:40.351Z,19.73
2018-06-10T19:32:08.572Z,20.53
2018-06-10T19:34:36.871Z,20.53
2018-06-10T19:37:06.397Z,22.33
2018-06-10T19:39:34.586Z,22.67
2018-06-10T19:42:02.867Z,22.50
2018-06-10T19:44:31.092Z,24.63
2018-06-10T19:46:59.313Z,19.10
2018-06-10T19:49:27.554Z,16.67
2018-06-10T19:51:55.829Z,17.40
2018-06-10T19:54:23.985Z,18.33
2018-06-10T19:56:52.248Z,19.10
2018-06-10T19:59:20.432Z,17.03
2018-06-10T20:01:48.799Z,21.23
2018-06-10T20:04:16.967Z,16.57
2018-06-10T20:06:45.180Z,16.67
2018-06-10T20:09:13.432Z,17.60
2018-06-10T20:11:41.619Z,15.50
2018-06-10T20:14:09.801Z,14.13
2018-06-10T20:16:38.058Z,14.53
2018-06-10T20:19:06.284Z,17.90
2018-06-10T20:21:34.617Z,16.07
2018-06-10T20:24:02.852Z,15.70
2018-06-10T20:26:31.505Z,17.10
2018-06-10T20:28:59.936Z,16.37
2018-06-10T20:31:28.538Z,16.30
2018-06-10T20:33:56.757Z,16.10
2018-06-10T20:36:25.077Z,30.37
2018-06-10T20:38:53.243Z,23.83
2018-06-10T20:41:21.557Z,20.27
2018-06-10T20:43:49.810Z,15.60
2018-06-10T20:46:17.956Z,17.03
2018-06-10T20:48:46.136Z,20.20
2018-06-10T20:51:14.618Z,14.67
2018-06-10T20:53:42.784Z,16.10
2018-06-10T20:56:10.988Z,16.43
2018-06-10T20:58:39.237Z,14.37
2018-06-10T21:01:07.488Z,15.40
2018-06-10T21:03:35.754Z,14.23
2018-06-10T21:06:03.929Z,12.40
2018-06-10T21:08:32.204Z,14.80
2018-06-10T21:11:00.520Z,18.80
2018-06-10T21:13:28.766Z,14.67
2018-06-10T21:15:57.039Z,12.20
2018-06-10T21:18:25.244Z,12.83
2018-06-10T21:20:53.416Z,12.80
2018-06-10T21:23:21.645Z,12.73
2018-06-10T21:25:49.841Z,14.90
2018-06-10T21:28:18.033Z,13.03
2018-06-10T21:30:46.252Z,11.50
2018-06-10T21:33:14.551Z,11.00
2018-06-10T21:35:42.788Z,10.73
2018-06-10T21:38:11.026Z,10.73
2018-06-10T21:40:39.233Z,11.30
2018-06-10T21:43:07.514Z,13.10
2018-06-10T21:45:35.758Z,12.27
2018-06-10T21:48:04.372Z,13.30
2018-06-10T21:50:32.629Z,12.03
2018-06-10T21:53:01.165Z,10.90
2018-06-10T21:55:29.393Z,12.70
2018-06-10T21:57:57.584Z,10.57
2018-06-10T22:00:27.581Z,10.33
2018-06-10T22:02:55.810Z,10.30
2018-06-10T22:05:24.115Z,9.93
2018-06-10T22:07:52.390Z,8.40
2018-06-10T22:10:20.666Z,8.67
2018-06-10T22:12:48.894Z,8.73
2018-06-10T22:15:17.072Z,9.13
2018-06-10T22:17:45.365Z,9.53
2018-06-10T22:20:13.609Z,8.53
2018-06-10T22:22:41.816Z,7.70
2018-06-10T22:25:10.100Z,9.20
2018-06-10T22:27:38.458Z,8.97
2018-06-10T22:30:06.657Z,9.30
2018-06-10T22:32:35.246Z,9.70
2018-06-10T22:35:03.522Z,8.40
2018-06-10T22:37:31.742Z,9.70
2018-06-10T22:40:00.037Z,8.93
2018-06-10T22:42:35.047Z,9.83
2018-06-10T22:45:03.646Z,9.60
2018-06-10T22:47:31.908Z,9.23
2018-06-10T22:50:00.107Z,10.90
2018-06-10T22:52:28.357Z,14.93
2018-06-10T22:54:56.602Z,10.90
2018-06-10T22:57:24.837Z,10.67
2018-06-10T22:59:53.024Z,9.90
2018-06-10T23:02:21.509Z,10.00
2018-06-10T23:04:49.720Z,12.00
2018-06-10T23:07:18.188Z,9.63
2018-06-10T23:09:46.769Z,10.83
2018-06-10T23:12:14.954Z,11.80
2018-06-10T23:14:43.202Z,16.20
2018-06-10T23:17:11.447Z,13.80
2018-06-10T23:19:39.643Z,12.50
2018-06-10T23:22:07.932Z,11.90
2018-06-10T23:24:36.200Z,11.27
2018-06-10T23:27:04.418Z,26.40
2018-06-10T23:29:32.628Z,11.43
2018-06-10T23:32:00.855Z,10.10
2018-06-10T23:34:29.438Z,10.53
2018-06-10T23:36:57.669Z,11.50
2018-06-10T23:39:25.892Z,11.40
2018-06-10T23:41:54.080Z,10.60
2018-06-10T23:44:22.255Z,11.20
2018-06-10T23:46:50.490Z,10.17
2018-06-10T23:49:18.768Z,11.80
2018-06-10T23:51:47.059Z,12.20
2018-06-10T23:54:15.517Z,12.47
2018-06-10T23:56:43.796Z,12.50
2018-06-10T23:59:12.047Z,13.20
